sensor_id;sensor_type;location;lat;lon;timestamp;pressure;altitude;pressure_sealevel;temperature;humidity
39455;BME280;25155;41.890;23.446;2023-09-19T00:00:23;92338.34;;;15.38;58.61
39455;BME280;25155;41.890;23.446;2023-09-19T00:02:53;92335.72;;;15.38;58.29
39455;BME280;25155;41.890;23.446;2023-09-19T00:05:23;92340.44;;;15.36;58.14
39455;BME280;25155;41.890;23.446;2023-09-19T00:07:54;92336.81;;;15.31;58.93
39455;BME280;25155;41.890;23.446;2023-09-19T00:10:22;92334.75;;;15.28;58.60
39455;BME280;25155;41.890;23.446;2023-09-19T00:12:52;92332.19;;;15.23;58.61
39455;BME280;25155;41.890;23.446;2023-09-19T00:15:22;92328.53;;;15.19;58.62
39455;BME280;25155;41.890;23.446;2023-09-19T00:17:49;92321.53;;;15.15;58.38
39455;BME280;25155;41.890;23.446;2023-09-19T00:20:18;92333.31;;;15.17;58.91
39455;BME280;25155;41.890;23.446;2023-09-19T00:22:47;92326.78;;;15.15;58.51
39455;BME280;25155;41.890;23.446;2023-09-19T00:25:15;92333.88;;;15.14;58.82
39455;BME280;25155;41.890;23.446;2023-09-19T00:27:42;92321.81;;;15.13;58.52
39455;BME280;25155;41.890;23.446;2023-09-19T00:30:12;92324.50;;;15.08;58.51
39455;BME280;25155;41.890;23.446;2023-09-19T00:32:45;92325.56;;;15.07;58.90
39455;BME280;25155;41.890;23.446;2023-09-19T00:35:13;92332.66;;;15.06;58.86
39455;BME280;25155;41.890;23.446;2023-09-19T00:37:41;92330.31;;;15.05;58.81
39455;BME280;25155;41.890;23.446;2023-09-19T00:40:10;92328.25;;;15.02;58.76
39455;BME280;25155;41.890;23.446;2023-09-19T00:42:38;92325.94;;;14.95;58.71
39455;BME280;25155;41.890;23.446;2023-09-19T00:45:07;92315.00;;;14.88;58.59
39455;BME280;25155;41.890;23.446;2023-09-19T00:47:38;92324.94;;;14.91;58.47
39455;BME280;25155;41.890;23.446;2023-09-19T00:50:08;92323.38;;;14.90;58.66
39455;BME280;25155;41.890;23.446;2023-09-19T00:52:37;92323.38;;;14.90;58.28
39455;BME280;25155;41.890;23.446;2023-09-19T00:55:07;92317.91;;;14.86;58.35
39455;BME280;25155;41.890;23.446;2023-09-19T00:57:34;92322.09;;;14.87;58.42
39455;BME280;25155;41.890;23.446;2023-09-19T01:00:03;92308.50;;;14.80;58.31
39455;BME280;25155;41.890;23.446;2023-09-19T01:02:33;92316.88;;;14.82;58.53
39455;BME280;25155;41.890;23.446;2023-09-19T01:05:02;92300.75;;;14.70;58.99
39455;BME280;25155;41.890;23.446;2023-09-19T01:07:32;92303.09;;;14.71;58.77
39455;BME280;25155;41.890;23.446;2023-09-19T01:10:00;92310.16;;;14.71;58.52
39455;BME280;25155;41.890;23.446;2023-09-19T01:12:46;92305.81;;;14.61;58.74
39455;BME280;25155;41.890;23.446;2023-09-19T01:15:20;92312.38;;;14.58;59.18
39455;BME280;25155;41.890;23.446;2023-09-19T01:17:55;92312.97;;;14.50;59.88
39455;BME280;25155;41.890;23.446;2023-09-19T01:20:34;92306.19;;;14.44;59.92
39455;BME280;25155;41.890;23.446;2023-09-19T01:23:12;92309.91;;;14.38;59.78
39455;BME280;25155;41.890;23.446;2023-09-19T01:26:05;92317.56;;;14.34;59.71
39455;BME280;25155;41.890;23.446;2023-09-19T01:28:43;92308.22;;;14.23;61.67
39455;BME280;25155;41.890;23.446;2023-09-19T01:31:15;92312.72;;;14.17;61.43
39455;BME280;25155;41.890;23.446;2023-09-19T01:33:59;92293.38;;;14.08;61.17
39455;BME280;25155;41.890;23.446;2023-09-19T01:36:31;92310.38;;;14.16;60.61
39455;BME280;25155;41.890;23.446;2023-09-19T01:39:04;92309.59;;;14.15;60.68
39455;BME280;25155;41.890;23.446;2023-09-19T01:41:45;92313.28;;;14.14;60.41
39455;BME280;25155;41.890;23.446;2023-09-19T01:44:22;92311.72;;;14.13;60.28
39455;BME280;25155;41.890;23.446;2023-09-19T01:46:58;92302.78;;;14.14;60.37
39455;BME280;25155;41.890;23.446;2023-09-19T01:49:34;92294.91;;;14.14;59.99
39455;BME280;25155;41.890;23.446;2023-09-19T01:52:10;92297.81;;;14.13;59.97
39455;BME280;25155;41.890;23.446;2023-09-19T01:54:48;92304.91;;;14.12;60.15
39455;BME280;25155;41.890;23.446;2023-09-19T01:57:26;92295.47;;;14.11;59.54
39455;BME280;25155;41.890;23.446;2023-09-19T02:00:02;92300.22;;;14.09;60.12
39455;BME280;25155;41.890;23.446;2023-09-19T02:02:34;92291.56;;;14.09;60.04
39455;BME280;25155;41.890;23.446;2023-09-19T02:05:04;92288.94;;;14.09;59.84
39455;BME280;25155;41.890;23.446;2023-09-19T02:07:32;92293.38;;;14.08;60.13
39455;BME280;25155;41.890;23.446;2023-09-19T02:10:04;92288.72;;;14.05;60.05
39455;BME280;25155;41.890;23.446;2023-09-19T02:12:32;92301.81;;;14.05;59.88
39455;BME280;25155;41.890;23.446;2023-09-19T02:15:00;92299.75;;;14.02;59.96
39455;BME280;25155;41.890;23.446;2023-09-19T02:17:28;92297.41;;;14.00;59.95
39455;BME280;25155;41.890;23.446;2023-09-19T02:19:58;92291.13;;;13.96;60.17
39455;BME280;25155;41.890;23.446;2023-09-19T02:22:26;92293.25;;;13.94;59.97
39455;BME280;25155;41.890;23.446;2023-09-19T02:24:53;92298.25;;;13.91;60.36
39455;BME280;25155;41.890;23.446;2023-09-19T02:27:24;92293.31;;;13.84;60.72
39455;BME280;25155;41.890;23.446;2023-09-19T02:29:51;92294.63;;;13.81;60.35
39455;BME280;25155;41.890;23.446;2023-09-19T02:32:18;92294.41;;;13.78;60.25
39455;BME280;25155;41.890;23.446;2023-09-19T02:34:45;92293.41;;;13.74;60.54
39455;BME280;25155;41.890;23.446;2023-09-19T02:37:14;92293.13;;;13.70;60.55
39455;BME280;25155;41.890;23.446;2023-09-19T02:39:42;92294.47;;;13.68;60.48
39455;BME280;25155;41.890;23.446;2023-09-19T02:42:09;92280.59;;;13.62;60.66
39455;BME280;25155;41.890;23.446;2023-09-19T02:44:37;92285.84;;;13.62;60.63
39455;BME280;25155;41.890;23.446;2023-09-19T02:47:04;92287.97;;;13.60;60.30
39455;BME280;25155;41.890;23.446;2023-09-19T02:49:31;92285.63;;;13.58;60.28
39455;BME280;25155;41.890;23.446;2023-09-19T02:51:59;92279.63;;;13.53;60.43
39455;BME280;25155;41.890;23.446;2023-09-19T02:54:28;92280.13;;;13.55;60.11
39455;BME280;25155;41.890;23.446;2023-09-19T02:56:56;92286.97;;;13.56;60.09
39455;BME280;25155;41.890;23.446;2023-09-19T02:59:25;92278.56;;;13.54;60.49
39455;BME280;25155;41.890;23.446;2023-09-19T03:01:54;92273.88;;;13.51;60.42
39455;BME280;25155;41.890;23.446;2023-09-19T03:04:21;92271.53;;;13.49;60.20
39455;BME280;25155;41.890;23.446;2023-09-19T03:06:49;92270.22;;;13.46;60.09
39455;BME280;25155;41.890;23.446;2023-09-19T03:09:17;92265.53;;;13.43;59.76
39455;BME280;25155;41.890;23.446;2023-09-19T03:11:46;92270.03;;;13.38;59.76
39455;BME280;25155;41.890;23.446;2023-09-19T03:14:13;92275.53;;;13.36;60.19
39455;BME280;25155;41.890;23.446;2023-09-19T03:16:41;92276.84;;;13.34;59.78
39455;BME280;25155;41.890;23.446;2023-09-19T03:19:10;92273.97;;;13.30;59.72
39455;BME280;25155;41.890;23.446;2023-09-19T03:21:37;92271.38;;;13.25;60.12
39455;BME280;25155;41.890;23.446;2023-09-19T03:24:05;92266.66;;;13.22;59.71
39455;BME280;25155;41.890;23.446;2023-09-19T03:26:33;92271.41;;;13.20;60.02
39455;BME280;25155;41.890;23.446;2023-09-19T03:29:03;92273.00;;;13.16;60.03
39455;BME280;25155;41.890;23.446;2023-09-19T03:31:34;92271.44;;;13.15;59.76
39455;BME280;25155;41.890;23.446;2023-09-19T03:34:03;92273.53;;;13.13;60.00
39455;BME280;25155;41.890;23.446;2023-09-19T03:36:30;92266.53;;;13.03;59.93
39455;BME280;25155;41.890;23.446;2023-09-19T03:38:58;92273.28;;;13.09;60.05
39455;BME280;25155;41.890;23.446;2023-09-19T03:41:25;92274.09;;;13.09;60.13
39455;BME280;25155;41.890;23.446;2023-09-19T03:43:52;92283.25;;;13.07;60.58
39455;BME280;25155;41.890;23.446;2023-09-19T03:46:21;92275.94;;;12.99;60.07
39455;BME280;25155;41.890;23.446;2023-09-19T03:48:48;92274.41;;;12.98;60.57
39455;BME280;25155;41.890;23.446;2023-09-19T03:51:15;92281.22;;;12.93;60.46
39455;BME280;25155;41.890;23.446;2023-09-19T03:53:43;92272.06;;;12.91;60.16
39455;BME280;25155;41.890;23.446;2023-09-19T03:56:10;92277.56;;;12.89;60.67
39455;BME280;25155;41.890;23.446;2023-09-19T03:58:37;92274.41;;;12.87;60.57
39455;BME280;25155;41.890;23.446;2023-09-19T04:01:05;92278.09;;;12.86;60.94
39455;BME280;25155;41.890;23.446;2023-09-19T04:03:34;92281.50;;;12.82;60.80
39455;BME280;25155;41.890;23.446;2023-09-19T04:06:13;92279.69;;;12.77;60.29
39455;BME280;25155;41.890;23.446;2023-09-19T04:08:40;92278.69;;;12.73;60.69
39455;BME280;25155;41.890;23.446;2023-09-19T04:11:07;92276.84;;;12.68;60.30
39455;BME280;25155;41.890;23.446;2023-09-19T04:13:35;92283.66;;;12.64;60.54
39455;BME280;25155;41.890;23.446;2023-09-19T04:16:02;92284.75;;;12.58;60.54
39455;BME280;25155;41.890;23.446;2023-09-19T04:18:30;92291.78;;;12.58;60.68
39455;BME280;25155;41.890;23.446;2023-09-19T04:21:00;92298.34;;;12.55;60.49
39455;BME280;25155;41.890;23.446;2023-09-19T04:23:30;92298.09;;;12.51;60.54
39455;BME280;25155;41.890;23.446;2023-09-19T04:25:57;92298.59;;;12.53;60.83
39455;BME280;25155;41.890;23.446;2023-09-19T04:28:25;92292.31;;;12.49;61.04
39455;BME280;25155;41.890;23.446;2023-09-19T04:30:53;92304.63;;;12.54;60.84
39455;BME280;25155;41.890;23.446;2023-09-19T04:33:22;92309.34;;;12.52;60.89
39455;BME280;25155;41.890;23.446;2023-09-19T04:35:49;92307.50;;;12.52;61.33
39455;BME280;25155;41.890;23.446;2023-09-19T04:38:18;92302.00;;;12.49;61.59
39455;BME280;25155;41.890;23.446;2023-09-19T04:40:45;92302.78;;;12.49;61.83
39455;BME280;25155;41.890;23.446;2023-09-19T04:43:13;92312.47;;;12.49;62.25
39455;BME280;25155;41.890;23.446;2023-09-19T04:45:41;92304.13;;;12.47;62.21
39455;BME280;25155;41.890;23.446;2023-09-19T04:48:08;92308.81;;;12.50;62.03
39455;BME280;25155;41.890;23.446;2023-09-19T04:50:36;92300.97;;;12.50;62.67
39455;BME280;25155;41.890;23.446;2023-09-19T04:53:04;92300.44;;;12.43;63.45
39455;BME280;25155;41.890;23.446;2023-09-19T04:55:34;92303.34;;;12.31;65.19
39455;BME280;25155;41.890;23.446;2023-09-19T04:58:01;92305.72;;;12.27;65.38
39455;BME280;25155;41.890;23.446;2023-09-19T05:00:29;92304.41;;;12.25;65.34
39455;BME280;25155;41.890;23.446;2023-09-19T05:03:00;92305.47;;;12.18;65.69
39455;BME280;25155;41.890;23.446;2023-09-19T05:05:29;92312.78;;;12.22;65.99
39455;BME280;25155;41.890;23.446;2023-09-19T05:07:56;92305.22;;;12.15;66.66
39455;BME280;25155;41.890;23.446;2023-09-19T05:10:24;92304.69;;;11.97;67.84
39455;BME280;25155;41.890;23.446;2023-09-19T05:12:54;92313.78;;;11.85;68.97
39455;BME280;25155;41.890;23.446;2023-09-19T05:15:22;92308.81;;;11.83;68.89
39455;BME280;25155;41.890;23.446;2023-09-19T05:17:50;92310.91;;;11.86;68.10
39455;BME280;25155;41.890;23.446;2023-09-19T05:20:17;92301.53;;;11.90;67.69
39455;BME280;25155;41.890;23.446;2023-09-19T05:22:57;92308.63;;;11.95;67.29
39455;BME280;25155;41.890;23.446;2023-09-19T05:25:26;92303.63;;;12.04;67.09
39455;BME280;25155;41.890;23.446;2023-09-19T05:27:57;92308.09;;;12.08;67.03
39455;BME280;25155;41.890;23.446;2023-09-19T05:30:25;92305.72;;;12.17;66.66
39455;BME280;25155;41.890;23.446;2023-09-19T05:32:53;92302.31;;;12.22;66.47
39455;BME280;25155;41.890;23.446;2023-09-19T05:35:22;92301.50;;;12.26;66.73
39455;BME280;25155;41.890;23.446;2023-09-19T05:37:51;92299.94;;;12.30;66.61
39455;BME280;25155;41.890;23.446;2023-09-19T05:40:18;92294.97;;;12.34;66.67
39455;BME280;25155;41.890;23.446;2023-09-19T05:42:46;92295.47;;;12.41;66.33
39455;BME280;25155;41.890;23.446;2023-09-19T05:45:15;92294.69;;;12.46;66.64
39455;BME280;25155;41.890;23.446;2023-09-19T05:47:48;92295.22;;;12.48;67.20
39455;BME280;25155;41.890;23.446;2023-09-19T05:50:17;92290.53;;;12.45;68.12
39455;BME280;25155;41.890;23.446;2023-09-19T05:52:51;92293.41;;;12.43;67.91
39455;BME280;25155;41.890;23.446;2023-09-19T05:55:19;92291.28;;;12.50;68.16
39455;BME280;25155;41.890;23.446;2023-09-19T05:57:50;92287.63;;;12.57;67.74
39455;BME280;25155;41.890;23.446;2023-09-19T06:00:20;92300.97;;;12.34;68.32
39455;BME280;25155;41.890;23.446;2023-09-19T06:02:50;92301.22;;;12.59;68.35
39455;BME280;25155;41.890;23.446;2023-09-19T06:05:18;92296.44;;;12.71;68.21
39455;BME280;25155;41.890;23.446;2023-09-19T06:07:45;92296.72;;;12.80;67.81
39455;BME280;25155;41.890;23.446;2023-09-19T06:10:13;92293.81;;;12.81;69.28
39455;BME280;25155;41.890;23.446;2023-09-19T06:12:40;92296.72;;;12.80;69.44
39455;BME280;25155;41.890;23.446;2023-09-19T06:15:10;92308.47;;;12.82;69.46
39455;BME280;25155;41.890;23.446;2023-09-19T06:17:42;92302.47;;;12.82;70.29
39455;BME280;25155;41.890;23.446;2023-09-19T06:20:10;92295.13;;;12.79;70.11
39455;BME280;25155;41.890;23.446;2023-09-19T06:22:41;92286.25;;;12.80;70.62
39455;BME280;25155;41.890;23.446;2023-09-19T06:25:09;92288.63;;;12.76;70.38
39455;BME280;25155;41.890;23.446;2023-09-19T06:27:38;92297.72;;;12.89;70.61
39455;BME280;25155;41.890;23.446;2023-09-19T06:30:08;92288.03;;;12.95;71.16
39455;BME280;25155;41.890;23.446;2023-09-19T06:32:35;92283.03;;;12.98;71.55
39455;BME280;25155;41.890;23.446;2023-09-19T06:35:05;92286.69;;;12.97;72.06
39455;BME280;25155;41.890;23.446;2023-09-19T06:37:34;92279.97;;;12.70;73.44
39455;BME280;25155;41.890;23.446;2023-09-19T06:40:01;92278.06;;;12.97;73.75
39455;BME280;25155;41.890;23.446;2023-09-19T06:42:31;92284.03;;;13.07;73.71
39455;BME280;25155;41.890;23.446;2023-09-19T06:44:58;92278.25;;;13.16;73.47
39455;BME280;25155;41.890;23.446;2023-09-19T06:47:25;92280.81;;;13.26;72.77
39455;BME280;25155;41.890;23.446;2023-09-19T06:49:52;92289.38;;;13.42;72.55
39455;BME280;25155;41.890;23.446;2023-09-19T06:52:21;92287.94;;;13.65;72.03
39455;BME280;25155;41.890;23.446;2023-09-19T06:54:48;92288.53;;;13.91;72.14
39455;BME280;25155;41.890;23.446;2023-09-19T06:57:16;92276.59;;;14.09;71.95
39455;BME280;25155;41.890;23.446;2023-09-19T06:59:43;92273.78;;;14.30;72.08
39455;BME280;25155;41.890;23.446;2023-09-19T07:02:10;92279.69;;;14.46;71.40
39455;BME280;25155;41.890;23.446;2023-09-19T07:04:39;92273.75;;;14.64;71.50
39455;BME280;25155;41.890;23.446;2023-09-19T07:07:06;92270.13;;;14.84;71.32
39455;BME280;25155;41.890;23.446;2023-09-19T07:09:35;92266.81;;;14.98;71.24
39455;BME280;25155;41.890;23.446;2023-09-19T07:12:03;92269.28;;;15.13;70.54
39455;BME280;25155;41.890;23.446;2023-09-19T07:14:31;92270.72;;;15.24;70.59
39455;BME280;25155;41.890;23.446;2023-09-19T07:16:58;92263.75;;;15.34;69.54
39455;BME280;25155;41.890;23.446;2023-09-19T07:19:26;92277.25;;;15.46;69.23
39455;BME280;25155;41.890;23.446;2023-09-19T07:21:54;92271.56;;;15.58;68.62
39455;BME280;25155;41.890;23.446;2023-09-19T07:24:22;92270.56;;;15.73;68.65
39455;BME280;25155;41.890;23.446;2023-09-19T07:26:51;92271.94;;;15.89;68.00
39455;BME280;25155;41.890;23.446;2023-09-19T07:29:18;92266.22;;;16.01;67.37
39455;BME280;25155;41.890;23.446;2023-09-19T07:31:45;92263.72;;;16.10;67.38
39455;BME280;25155;41.890;23.446;2023-09-19T07:34:12;92266.25;;;16.15;65.93
39455;BME280;25155;41.890;23.446;2023-09-19T07:36:40;92268.03;;;16.19;65.78
39455;BME280;25155;41.890;23.446;2023-09-19T07:39:08;92264.44;;;16.29;65.62
39455;BME280;25155;41.890;23.446;2023-09-19T07:41:35;92260.09;;;16.38;65.19
39455;BME280;25155;41.890;23.446;2023-09-19T07:44:04;92259.31;;;16.52;65.53
39455;BME280;25155;41.890;23.446;2023-09-19T07:46:31;92260.09;;;16.66;65.58
39455;BME280;25155;41.890;23.446;2023-09-19T07:48:59;92253.09;;;16.75;65.21
39455;BME280;25155;41.890;23.446;2023-09-19T07:51:26;92238.88;;;16.76;64.28
39455;BME280;25155;41.890;23.446;2023-09-19T07:53:53;92251.28;;;16.90;63.98
39455;BME280;25155;41.890;23.446;2023-09-19T07:56:21;92246.00;;;17.04;63.57
39455;BME280;25155;41.890;23.446;2023-09-19T07:58:50;92251.44;;;17.21;63.48
39455;BME280;25155;41.890;23.446;2023-09-19T08:01:19;92251.53;;;17.30;61.64
39455;BME280;25155;41.890;23.446;2023-09-19T08:03:49;92246.63;;;17.37;60.90
39455;BME280;25155;41.890;23.446;2023-09-19T08:06:16;92245.63;;;17.47;61.38
39455;BME280;25155;41.890;23.446;2023-09-19T08:08:44;92243.06;;;17.56;61.69
39455;BME280;25155;41.890;23.446;2023-09-19T08:11:11;92246.56;;;17.65;61.99
39455;BME280;25155;41.890;23.446;2023-09-19T08:13:41;92243.91;;;17.65;61.41
39455;BME280;25155;41.890;23.446;2023-09-19T08:16:11;92231.09;;;17.72;61.48
39455;BME280;25155;41.890;23.446;2023-09-19T08:18:42;92238.28;;;17.80;60.57
39455;BME280;25155;41.890;23.446;2023-09-19T08:21:11;92233.97;;;17.84;60.82
39455;BME280;25155;41.890;23.446;2023-09-19T08:23:40;92225.50;;;17.87;60.43
39455;BME280;25155;41.890;23.446;2023-09-19T08:26:07;92233.47;;;17.96;60.44
39455;BME280;25155;41.890;23.446;2023-09-19T08:28:35;92227.59;;;17.99;59.53
39455;BME280;25155;41.890;23.446;2023-09-19T08:31:03;92229.81;;;18.06;59.15
39455;BME280;25155;41.890;23.446;2023-09-19T08:33:31;92237.78;;;18.15;57.94
39455;BME280;25155;41.890;23.446;2023-09-19T08:36:00;92227.38;;;18.18;58.71
39455;BME280;25155;41.890;23.446;2023-09-19T08:38:30;92220.47;;;18.31;58.64
39455;BME280;25155;41.890;23.446;2023-09-19T08:40:59;92222.88;;;18.50;58.94
39455;BME280;25155;41.890;23.446;2023-09-19T08:43:26;92219.25;;;18.69;59.41
39455;BME280;25155;41.890;23.446;2023-09-19T08:45:58;92223.16;;;18.80;57.06
39455;BME280;25155;41.890;23.446;2023-09-19T08:48:31;92215.75;;;18.91;56.46
39455;BME280;25155;41.890;23.446;2023-09-19T08:51:03;92220.00;;;19.01;54.41
39455;BME280;25155;41.890;23.446;2023-09-19T08:53:36;92210.38;;;19.13;55.21
39455;BME280;25155;41.890;23.446;2023-09-19T08:56:10;92208.22;;;19.24;53.17
39455;BME280;25155;41.890;23.446;2023-09-19T08:58:44;92211.50;;;19.30;50.43
39455;BME280;25155;41.890;23.446;2023-09-19T09:01:15;92206.38;;;19.42;51.80
39455;BME280;25155;41.890;23.446;2023-09-19T09:03:45;92198.59;;;19.54;51.25
39455;BME280;25155;41.890;23.446;2023-09-19T09:06:16;92207.75;;;19.66;51.28
39455;BME280;25155;41.890;23.446;2023-09-19T09:08:44;92197.69;;;19.77;50.98
39455;BME280;25155;41.890;23.446;2023-09-19T09:11:12;92198.13;;;19.87;51.17
39455;BME280;25155;41.890;23.446;2023-09-19T09:13:40;92200.78;;;19.96;51.20
39455;BME280;25155;41.890;23.446;2023-09-19T09:18:35;92193.91;;;20.13;50.52
39455;BME280;25155;41.890;23.446;2023-09-19T09:21:02;92186.88;;;20.17;51.09
39455;BME280;25155;41.890;23.446;2023-09-19T09:23:32;92194.81;;;20.17;49.66
39455;BME280;25155;41.890;23.446;2023-09-19T09:26:00;92191.38;;;20.25;50.09
39455;BME280;25155;41.890;23.446;2023-09-19T09:28:32;92183.25;;;20.30;51.00
39455;BME280;25155;41.890;23.446;2023-09-19T09:31:01;92183.38;;;20.42;51.22
39455;BME280;25155;41.890;23.446;2023-09-19T09:33:33;92182.56;;;20.51;50.96
39455;BME280;25155;41.890;23.446;2023-09-19T09:36:02;92189.72;;;20.59;51.02
39455;BME280;25155;41.890;23.446;2023-09-19T09:38:44;92176.47;;;20.59;50.87
39455;BME280;25155;41.890;23.446;2023-09-19T09:41:11;92182.63;;;20.33;50.65
39455;BME280;25155;41.890;23.446;2023-09-19T09:43:42;92183.00;;;20.61;50.84
39455;BME280;25155;41.890;23.446;2023-09-19T09:46:14;92179.69;;;20.73;50.92
39455;BME280;25155;41.890;23.446;2023-09-19T09:49:01;92178.69;;;20.87;51.75
39455;BME280;25155;41.890;23.446;2023-09-19T09:52:00;92176.91;;;20.99;51.63
39455;BME280;25155;41.890;23.446;2023-09-19T09:54:34;92168.38;;;21.15;52.47
39455;BME280;25155;41.890;23.446;2023-09-19T09:57:04;92168.78;;;21.26;51.70
39455;BME280;25155;41.890;23.446;2023-09-19T09:59:47;92151.59;;;21.32;50.83
39455;BME280;25155;41.890;23.446;2023-09-19T10:02:16;92158.72;;;21.40;50.26
39455;BME280;25155;41.890;23.446;2023-09-19T10:04:50;92149.00;;;21.44;50.78
39455;BME280;25155;41.890;23.446;2023-09-19T10:07:37;92156.69;;;21.58;51.79
39455;BME280;25155;41.890;23.446;2023-09-19T10:10:09;92148.81;;;21.70;51.26
39455;BME280;25155;41.890;23.446;2023-09-19T10:12:44;92144.78;;;21.85;51.38
39455;BME280;25155;41.890;23.446;2023-09-19T10:15:16;92132.44;;;22.02;51.35
39455;BME280;25155;41.890;23.446;2023-09-19T10:17:47;92138.22;;;22.16;51.69
39455;BME280;25155;41.890;23.446;2023-09-19T10:20:16;92139.28;;;22.36;51.03
39455;BME280;25155;41.890;23.446;2023-09-19T10:23:06;92130.00;;;22.55;51.81
39455;BME280;25155;41.890;23.446;2023-09-19T10:25:40;92124.56;;;22.76;51.37
39455;BME280;25155;41.890;23.446;2023-09-19T10:28:10;92126.53;;;22.91;49.08
39455;BME280;25155;41.890;23.446;2023-09-19T10:30:41;92126.84;;;23.02;48.81
39455;BME280;25155;41.890;23.446;2023-09-19T10:33:12;92121.97;;;23.16;49.58
39455;BME280;25155;41.890;23.446;2023-09-19T10:35:40;92121.63;;;23.30;48.96
39455;BME280;25155;41.890;23.446;2023-09-19T10:38:10;92118.94;;;23.43;49.12
39455;BME280;25155;41.890;23.446;2023-09-19T10:40:40;92116.22;;;23.55;48.80
39455;BME280;25155;41.890;23.446;2023-09-19T10:43:12;92111.28;;;23.69;48.65
39455;BME280;25155;41.890;23.446;2023-09-19T10:45:41;92106.47;;;23.87;49.34
39455;BME280;25155;41.890;23.446;2023-09-19T10:48:10;92104.75;;;23.95;46.71
39455;BME280;25155;41.890;23.446;2023-09-19T10:50:45;92099.88;;;23.97;45.99
39455;BME280;25155;41.890;23.446;2023-09-19T10:53:14;92103.03;;;24.03;45.18
39455;BME280;25155;41.890;23.446;2023-09-19T10:55:52;92100.84;;;24.05;45.68
39455;BME280;25155;41.890;23.446;2023-09-19T10:58:27;92094.03;;;24.07;44.64
39455;BME280;25155;41.890;23.446;2023-09-19T11:00:57;92094.31;;;24.18;44.25
39455;BME280;25155;41.890;23.446;2023-09-19T11:03:31;92091.31;;;24.20;44.75
39455;BME280;25155;41.890;23.446;2023-09-19T11:06:07;92090.44;;;24.16;43.81
39455;BME280;25155;41.890;23.446;2023-09-19T11:08:59;92084.25;;;24.11;44.33
39455;BME280;25155;41.890;23.446;2023-09-19T11:11:51;92081.50;;;24.24;45.14
39455;BME280;25155;41.890;23.446;2023-09-19T11:14:39;92067.81;;;24.25;44.91
39455;BME280;25155;41.890;23.446;2023-09-19T11:17:40;92072.97;;;24.34;44.66
39455;BME280;25155;41.890;23.446;2023-09-19T11:20:23;92075.13;;;24.44;45.40
39455;BME280;25155;41.890;23.446;2023-09-19T11:23:22;92066.34;;;24.44;45.41
39455;BME280;25155;41.890;23.446;2023-09-19T11:25:49;92054.06;;;24.55;46.20
39455;BME280;25155;41.890;23.446;2023-09-19T11:28:30;92059.88;;;24.77;46.54
39455;BME280;25155;41.890;23.446;2023-09-19T11:30:58;92058.97;;;25.04;47.62
39455;BME280;25155;41.890;23.446;2023-09-19T11:33:25;92051.31;;;25.22;47.91
39455;BME280;25155;41.890;23.446;2023-09-19T11:36:01;92053.66;;;25.44;46.37
39455;BME280;25155;41.890;23.446;2023-09-19T11:38:59;92055.44;;;25.55;46.13
39455;BME280;25155;41.890;23.446;2023-09-19T11:41:38;92044.00;;;25.58;44.87
39455;BME280;25155;41.890;23.446;2023-09-19T11:44:33;92046.94;;;25.73;46.39
39455;BME280;25155;41.890;23.446;2023-09-19T11:47:05;92036.94;;;25.89;46.25
39455;BME280;25155;41.890;23.446;2023-09-19T11:49:33;92034.13;;;26.02;44.17
39455;BME280;25155;41.890;23.446;2023-09-19T11:52:03;92029.22;;;26.04;43.14
39455;BME280;25155;41.890;23.446;2023-09-19T11:54:35;92027.69;;;26.06;43.75
39455;BME280;25155;41.890;23.446;2023-09-19T11:57:08;92020.19;;;26.12;43.68
39455;BME280;25155;41.890;23.446;2023-09-19T11:59:39;92019.97;;;26.24;44.50
39455;BME280;25155;41.890;23.446;2023-09-19T12:02:07;92009.41;;;26.31;43.21
39455;BME280;25155;41.890;23.446;2023-09-19T12:04:37;92003.44;;;26.42;43.50
39455;BME280;25155;41.890;23.446;2023-09-19T12:07:07;92005.09;;;26.50;43.58
39455;BME280;25155;41.890;23.446;2023-09-19T12:09:39;91996.03;;;26.58;43.84
39455;BME280;25155;41.890;23.446;2023-09-19T12:12:10;91994.63;;;26.64;42.54
39455;BME280;25155;41.890;23.446;2023-09-19T12:14:47;91991.56;;;26.66;42.87
39455;BME280;25155;41.890;23.446;2023-09-19T12:17:15;91976.84;;;26.79;43.49
39455;BME280;25155;41.890;23.446;2023-09-19T12:19:50;91971.38;;;26.68;38.78
39455;BME280;25155;41.890;23.446;2023-09-19T12:22:18;91976.97;;;26.60;38.29
39455;BME280;25155;41.890;23.446;2023-09-19T12:24:46;91979.16;;;26.54;37.61
39455;BME280;25155;41.890;23.446;2023-09-19T12:27:13;91983.75;;;26.54;37.36
39455;BME280;25155;41.890;23.446;2023-09-19T12:29:46;91968.78;;;26.49;35.57
39455;BME280;25155;41.890;23.446;2023-09-19T12:32:14;91970.16;;;26.39;34.73
39455;BME280;25155;41.890;23.446;2023-09-19T12:34:44;91967.34;;;26.28;34.90
39455;BME280;25155;41.890;23.446;2023-09-19T12:37:18;91964.16;;;26.19;32.33
39455;BME280;25155;41.890;23.446;2023-09-19T12:39:50;91966.41;;;26.17;32.75
39455;BME280;25155;41.890;23.446;2023-09-19T12:42:21;91973.19;;;26.11;32.84
39455;BME280;25155;41.890;23.446;2023-09-19T12:44:56;91966.41;;;26.17;35.21
39455;BME280;25155;41.890;23.446;2023-09-19T12:47:28;91962.13;;;26.12;36.59
39455;BME280;25155;41.890;23.446;2023-09-19T12:50:11;91963.88;;;26.01;36.20
39455;BME280;25155;41.890;23.446;2023-09-19T12:52:52;91961.38;;;25.89;38.35
39455;BME280;25155;41.890;23.446;2023-09-19T12:55:23;91963.84;;;25.78;39.14
39455;BME280;25155;41.890;23.446;2023-09-19T12:57:59;91947.88;;;25.58;37.73
39455;BME280;25155;41.890;23.446;2023-09-19T13:00:34;91948.53;;;25.52;38.14
39455;BME280;25155;41.890;23.446;2023-09-19T13:03:25;91945.50;;;25.53;38.34
39455;BME280;25155;41.890;23.446;2023-09-19T13:05:55;91961.06;;;25.71;37.36
39455;BME280;25155;41.890;23.446;2023-09-19T13:08:25;91944.34;;;25.74;36.11
39455;BME280;25155;41.890;23.446;2023-09-19T13:11:09;91937.84;;;25.75;36.81